createdAt,value
2022-10-22T00:00:05.822Z,16.35
2022-10-22T00:01:05.757Z,16.43
2022-10-22T00:02:05.726Z,16.46
2022-10-22T00:03:05.703Z,16.46
2022-10-22T00:04:05.657Z,16.41
2022-10-22T00:05:05.625Z,16.41
2022-10-22T00:06:05.593Z,16.42
2022-10-22T00:07:05.557Z,16.41
2022-10-22T00:08:05.527Z,16.41
2022-10-22T00:09:05.578Z,16.41
2022-10-22T00:10:05.460Z,16.46
2022-10-22T00:11:05.430Z,16.42
2022-10-22T00:12:05.390Z,16.36
2022-10-22T00:13:05.362Z,16.39
2022-10-22T00:14:05.342Z,16.46
2022-10-22T00:15:05.296Z,16.42
2022-10-22T00:16:05.269Z,16.42
2022-10-22T00:17:07.012Z,16.43
2022-10-22T00:18:05.197Z,16.41
2022-10-22T00:19:05.161Z,16.42
2022-10-22T00:20:05.129Z,16.42
2022-10-22T00:21:05.145Z,16.39
2022-10-22T00:22:05.065Z,16.43
2022-10-22T00:23:05.035Z,16.41
2022-10-22T00:24:04.998Z,16.43
2022-10-22T00:25:04.963Z,16.41
2022-10-22T00:26:04.936Z,16.38
2022-10-22T00:27:04.898Z,16.46
2022-10-22T00:28:04.869Z,16.43
2022-10-22T00:29:04.839Z,16.47
2022-10-22T00:30:04.805Z,16.41
2022-10-22T00:31:04.763Z,16.41
2022-10-22T00:32:04.740Z,16.38
2022-10-22T00:33:04.700Z,16.47
2022-10-22T00:34:04.677Z,16.49
2022-10-22T00:35:04.648Z,16.43
2022-10-22T00:36:04.604Z,16.43
2022-10-22T00:37:04.574Z,16.41
2022-10-22T00:38:04.538Z,16.39
2022-10-22T00:39:04.508Z,16.43
2022-10-22T00:40:04.473Z,16.43
2022-10-22T00:41:04.461Z,16.38
2022-10-22T00:42:04.413Z,16.47
2022-10-22T00:43:04.378Z,16.41
2022-10-22T00:44:04.343Z,16.46
2022-10-22T00:45:04.302Z,16.43
2022-10-22T00:46:04.276Z,16.50
2022-10-22T00:47:04.247Z,16.50
2022-10-22T00:48:04.214Z,16.39
2022-10-22T00:49:04.177Z,16.47
2022-10-22T00:51:04.114Z,16.36
2022-10-22T00:52:04.123Z,16.43
2022-10-22T00:53:04.048Z,16.53
2022-10-22T00:54:04.012Z,16.46
2022-10-22T00:55:04.038Z,16.43
2022-10-22T00:56:03.945Z,16.43
2022-10-22T00:57:03.915Z,16.49
2022-10-22T00:58:03.881Z,16.43
2022-10-22T00:59:03.881Z,16.46
2022-10-22T01:00:03.823Z,16.47
2022-10-22T01:01:03.862Z,16.53
2022-10-22T01:02:03.749Z,16.54
2022-10-22T01:03:03.714Z,16.51
2022-10-22T01:04:03.688Z,16.50
2022-10-22T01:05:03.646Z,16.51
2022-10-22T01:06:03.622Z,16.49
2022-10-22T01:07:03.586Z,16.53
2022-10-22T01:08:03.572Z,16.50
2022-10-22T01:09:03.596Z,16.50
2022-10-22T01:10:03.554Z,16.51
2022-10-22T01:11:03.465Z,16.47
2022-10-22T01:12:03.423Z,16.47
2022-10-22T01:13:03.395Z,16.53
2022-10-22T01:14:03.356Z,16.49
2022-10-22T01:15:03.328Z,16.54
2022-10-22T01:16:03.287Z,16.51
2022-10-22T01:17:03.260Z,16.51
2022-10-22T01:18:03.255Z,16.49
2022-10-22T01:19:03.192Z,16.51
2022-10-22T01:20:03.156Z,16.54
2022-10-22T01:21:03.137Z,16.49
2022-10-22T01:22:03.094Z,16.51
2022-10-22T01:23:03.060Z,16.50
2022-10-22T01:24:03.034Z,16.46
2022-10-22T01:25:02.996Z,16.49
2022-10-22T01:26:02.958Z,16.53
2022-10-22T01:27:02.934Z,16.51
2022-10-22T01:28:02.896Z,16.50
2022-10-22T01:29:02.859Z,16.53
2022-10-22T01:30:02.935Z,16.57
2022-10-22T01:31:02.798Z,16.42
2022-10-22T01:32:02.759Z,16.57
2022-10-22T01:33:02.733Z,16.49
2022-10-22T01:34:03.332Z,16.49
2022-10-22T01:35:02.662Z,16.47
2022-10-22T01:36:02.631Z,16.51
2022-10-22T01:37:02.598Z,16.49
2022-10-22T01:38:02.567Z,16.47
2022-10-22T01:39:02.535Z,16.43
2022-10-22T01:40:02.496Z,16.56
2022-10-22T01:41:02.467Z,16.56
2022-10-22T01:42:02.447Z,16.49
2022-10-22T01:43:02.400Z,16.47
2022-10-22T01:44:02.373Z,16.49
2022-10-22T01:45:02.338Z,16.53
2022-10-22T01:46:02.303Z,16.54
2022-10-22T01:47:02.270Z,16.51
2022-10-22T01:48:02.239Z,16.53
2022-10-22T01:49:02.238Z,16.54
2022-10-22T01:50:02.172Z,16.43
2022-10-22T01:51:02.142Z,16.53
2022-10-22T01:52:02.106Z,16.42
2022-10-22T01:53:02.069Z,16.49
2022-10-22T01:54:02.048Z,16.49
2022-10-22T01:55:02.007Z,16.57
2022-10-22T01:56:01.978Z,16.56
2022-10-22T01:57:01.943Z,16.46
2022-10-22T01:58:01.908Z,16.42
2022-10-22T01:59:01.879Z,16.49
2022-10-22T02:00:01.845Z,16.46
2022-10-22T02:01:01.897Z,16.43
2022-10-22T02:02:01.779Z,16.42
2022-10-22T02:03:01.760Z,16.43
2022-10-22T02:04:01.714Z,16.39
2022-10-22T02:05:01.684Z,16.53
2022-10-22T02:06:01.698Z,16.49
2022-10-22T02:07:01.612Z,16.51
2022-10-22T02:08:01.585Z,16.41
2022-10-22T02:09:01.595Z,16.54
2022-10-22T02:10:01.516Z,16.47
2022-10-22T02:11:01.482Z,16.50
2022-10-22T02:12:01.509Z,16.57
2022-10-22T02:13:01.416Z,16.43
2022-10-22T02:14:01.382Z,16.39
2022-10-22T02:15:01.353Z,16.47
2022-10-22T02:16:01.350Z,16.49
2022-10-22T02:17:01.326Z,16.41
2022-10-22T02:18:01.258Z,16.47
2022-10-22T02:19:01.273Z,16.39
2022-10-22T02:20:01.187Z,16.47
2022-10-22T02:21:01.174Z,16.49
2022-10-22T02:22:01.125Z,16.50
2022-10-22T02:23:01.085Z,16.39
2022-10-22T02:24:01.056Z,16.39
2022-10-22T02:25:01.019Z,16.47
2022-10-22T02:26:01.051Z,16.47
2022-10-22T02:27:00.957Z,16.43
2022-10-22T02:28:00.923Z,16.42
2022-10-22T02:29:00.950Z,16.41
2022-10-22T02:30:00.939Z,16.46
2022-10-22T02:31:00.832Z,16.43
2022-10-22T02:32:00.829Z,16.43
2022-10-22T02:33:00.759Z,16.41
2022-10-22T02:34:00.796Z,16.36
2022-10-22T02:35:00.696Z,16.42
2022-10-22T02:36:00.660Z,16.43
2022-10-22T02:37:00.647Z,16.41
2022-10-22T02:38:00.602Z,16.43
2022-10-22T02:39:00.566Z,16.43
2022-10-22T02:40:00.533Z,16.42
2022-10-22T02:41:00.502Z,16.42
2022-10-22T02:42:00.461Z,16.42
2022-10-22T02:43:00.432Z,16.42
2022-10-22T02:44:00.398Z,16.43
2022-10-22T02:45:00.364Z,16.43
2022-10-22T02:46:00.332Z,16.41
2022-10-22T02:47:00.301Z,16.41
2022-10-22T02:48:00.269Z,16.46
2022-10-22T02:49:00.236Z,16.43
2022-10-22T02:50:00.216Z,16.43
2022-10-22T02:51:00.165Z,16.46
2022-10-22T02:52:00.137Z,16.43
2022-10-22T02:53:00.098Z,16.39
2022-10-22T02:54:00.088Z,16.43
2022-10-22T02:55:00.036Z,16.43
2022-10-22T02:56:00.001Z,16.42
2022-10-22T02:56:59.969Z,16.42
2022-10-22T02:57:59.937Z,16.42
2022-10-22T02:58:59.907Z,16.33
2022-10-22T02:59:59.873Z,16.39
2022-10-22T03:00:59.913Z,16.24
2022-10-22T03:01:59.812Z,16.29
2022-10-22T03:02:59.776Z,16.26
2022-10-22T03:03:59.742Z,16.29
2022-10-22T03:04:59.716Z,16.29
2022-10-22T03:05:59.682Z,16.26
2022-10-22T03:06:59.642Z,16.26
2022-10-22T03:07:59.612Z,16.31
2022-10-22T03:08:59.625Z,16.28
2022-10-22T03:09:59.542Z,16.26
2022-10-22T03:10:59.522Z,16.32
2022-10-22T03:11:59.477Z,16.29
2022-10-22T03:12:59.449Z,16.28
2022-10-22T03:13:59.409Z,16.16
2022-10-22T03:14:59.377Z,16.15
2022-10-22T03:15:59.347Z,16.21
2022-10-22T03:16:59.313Z,16.05
2022-10-22T03:17:59.280Z,16.15
2022-10-22T03:18:59.256Z,16.13
2022-10-22T03:19:59.215Z,16.13
2022-10-22T03:20:59.181Z,16.16
2022-10-22T03:21:59.156Z,16.13
2022-10-22T03:22:59.121Z,16.15
2022-10-22T03:23:59.081Z,16.16
2022-10-22T03:24:59.053Z,16.17
2022-10-22T03:26:58.985Z,16.20
2022-10-22T03:27:58.952Z,16.15
2022-10-22T03:28:58.916Z,16.15
2022-10-22T03:29:58.886Z,16.17
2022-10-22T03:30:58.854Z,16.12
2022-10-22T03:31:59.359Z,16.16
2022-10-22T03:32:58.784Z,16.12
2022-10-22T03:33:58.749Z,16.09
2022-10-22T03:35:58.689Z,16.10
2022-10-22T03:36:58.654Z,16.04
2022-10-22T03:37:58.620Z,16.05
2022-10-22T03:38:58.589Z,16.01
2022-10-22T03:39:58.554Z,16.05
2022-10-22T03:40:58.577Z,16.02
2022-10-22T03:41:58.486Z,16.04
2022-10-22T03:42:58.453Z,16.02
2022-10-22T03:43:58.421Z,16.01
2022-10-22T03:44:58.388Z,16.01
2022-10-22T03:45:58.356Z,16.01
2022-10-22T03:47:01.636Z,16.01
2022-10-22T03:47:58.290Z,16.00
2022-10-22T03:48:58.261Z,15.98
2022-10-22T03:49:58.223Z,15.91
2022-10-22T03:50:58.198Z,15.90
2022-10-22T03:51:58.156Z,15.94
2022-10-22T03:52:58.122Z,15.88
2022-10-22T03:53:58.093Z,15.91
2022-10-22T03:54:58.057Z,15.97
2022-10-22T03:55:58.021Z,15.92
2022-10-22T03:56:57.988Z,15.97
2022-10-22T03:57:57.960Z,15.97
2022-10-22T03:58:57.934Z,15.92
2022-10-22T03:59:57.891Z,15.90
2022-10-22T04:00:57.900Z,15.82
2022-10-22T04:01:57.826Z,15.90
2022-10-22T04:02:57.792Z,15.88
2022-10-22T04:03:57.755Z,15.90
2022-10-22T04:04:57.724Z,15.82
2022-10-22T04:05:57.687Z,15.94
2022-10-22T04:06:57.660Z,15.86
2022-10-22T04:07:57.628Z,15.92
2022-10-22T04:08:57.650Z,15.91
2022-10-22T04:09:57.561Z,15.86
2022-10-22T04:10:57.529Z,15.86
2022-10-22T04:11:57.494Z,15.82
2022-10-22T04:12:57.498Z,15.86
2022-10-22T04:13:57.422Z,15.84
2022-10-22T04:14:57.390Z,15.79
2022-10-22T04:15:57.364Z,15.83
2022-10-22T04:16:57.329Z,15.86
2022-10-22T04:17:57.291Z,15.82
2022-10-22T04:18:57.262Z,15.79
2022-10-22T04:19:57.228Z,15.73
2022-10-22T04:20:57.200Z,15.67
2022-10-22T04:21:57.157Z,15.73
2022-10-22T04:22:57.129Z,15.77
2022-10-22T04:23:57.094Z,15.75
2022-10-22T04:24:57.061Z,15.73
2022-10-22T04:25:57.028Z,15.72
2022-10-22T04:26:56.993Z,15.67
2022-10-22T04:27:56.962Z,15.65
2022-10-22T04:28:56.930Z,15.65
2022-10-22T04:29:56.891Z,15.68
2022-10-22T04:30:56.859Z,15.59
2022-10-22T04:31:56.827Z,15.61
2022-10-22T04:32:56.809Z,15.68
2022-10-22T04:33:56.801Z,15.64
2022-10-22T04:34:56.732Z,15.61
2022-10-22T04:35:56.718Z,15.59
2022-10-22T04:36:56.667Z,15.58
2022-10-22T04:37:56.630Z,15.58
2022-10-22T04:38:56.591Z,15.58
2022-10-22T04:39:58.238Z,15.58
2022-10-22T04:40:56.528Z,15.59
2022-10-22T04:41:56.493Z,15.58
2022-10-22T04:42:56.458Z,15.52
2022-10-22T04:43:56.428Z,15.54
2022-10-22T04:44:56.394Z,15.46
2022-10-22T04:46:56.327Z,15.51
2022-10-22T04:47:56.291Z,15.51
2022-10-22T04:48:56.254Z,15.47
2022-10-22T04:49:56.227Z,15.46
2022-10-22T04:50:56.192Z,15.43
2022-10-22T04:51:56.157Z,15.47
2022-10-22T04:52:56.135Z,15.40
2022-10-22T04:53:56.091Z,15.44
2022-10-22T04:54:56.070Z,15.51
2022-10-22T04:55:56.027Z,15.42
2022-10-22T04:56:55.998Z,15.44
2022-10-22T04:57:55.958Z,15.43
2022-10-22T04:58:55.925Z,15.43
2022-10-22T04:59:55.890Z,15.46
2022-10-22T05:00:55.913Z,15.47
2022-10-22T05:01:55.827Z,15.46
2022-10-22T05:02:55.792Z,15.44
2022-10-22T05:03:55.754Z,15.46
2022-10-22T05:04:55.724Z,15.46
2022-10-22T05:05:55.689Z,15.46
2022-10-22T05:06:55.654Z,15.43
2022-10-22T05:07:55.622Z,15.49
2022-10-22T05:08:55.698Z,15.42
2022-10-22T05:09:55.561Z,15.47
2022-10-22T05:10:55.523Z,15.49
2022-10-22T05:11:55.485Z,15.43
2022-10-22T05:12:55.462Z,15.44
2022-10-22T05:13:55.420Z,15.43
2022-10-22T05:14:55.386Z,15.43
2022-10-22T05:15:55.362Z,15.43
2022-10-22T05:16:55.321Z,15.39
2022-10-22T05:17:55.287Z,15.39
2022-10-22T05:18:55.253Z,15.42
2022-10-22T05:19:55.224Z,15.42
2022-10-22T05:20:55.227Z,15.43
2022-10-22T05:21:55.160Z,15.35
2022-10-22T05:22:55.119Z,15.42
2022-10-22T05:23:55.082Z,15.47
2022-10-22T05:24:55.049Z,15.33
2022-10-22T05:25:55.019Z,15.40
2022-10-22T05:26:54.983Z,15.31
2022-10-22T05:27:57.226Z,15.27
2022-10-22T05:28:54.923Z,15.31
2022-10-22T05:29:54.885Z,15.33
2022-10-22T05:30:54.851Z,15.25
2022-10-22T05:31:54.820Z,15.29
2022-10-22T05:32:54.782Z,15.29
2022-10-22T05:33:54.747Z,15.15
2022-10-22T05:34:54.715Z,15.22
2022-10-22T05:35:54.682Z,15.25
2022-10-22T05:36:54.720Z,15.19
2022-10-22T05:37:54.621Z,15.15
2022-10-22T05:38:54.582Z,15.22
2022-10-22T05:40:01.916Z,15.17
2022-10-22T05:40:54.509Z,15.18
2022-10-22T05:41:54.480Z,15.21
2022-10-22T05:42:54.451Z,15.07
2022-10-22T05:43:54.415Z,15.10
2022-10-22T05:44:54.376Z,15.07
2022-10-22T05:45:54.351Z,15.03
2022-10-22T05:46:54.313Z,15.14
2022-10-22T05:47:54.281Z,15.09
2022-10-22T05:48:54.244Z,15.11
2022-10-22T05:49:54.209Z,15.00
2022-10-22T05:50:54.172Z,15.02
2022-10-22T05:51:54.140Z,15.07
2022-10-22T05:52:54.108Z,15.02
2022-10-22T05:53:54.081Z,15.02
2022-10-22T05:54:54.043Z,15.02
2022-10-22T05:55:54.018Z,15.04
2022-10-22T05:56:53.988Z,15.00
2022-10-22T05:57:53.947Z,14.96
2022-10-22T05:58:53.937Z,14.97
2022-10-22T05:59:53.877Z,14.96
2022-10-22T06:00:53.836Z,14.96
2022-10-22T06:01:53.862Z,14.99
2022-10-22T06:02:53.773Z,14.91
2022-10-22T06:03:53.740Z,14.91
2022-10-22T06:04:53.702Z,14.88
2022-10-22T06:05:53.671Z,14.94
2022-10-22T06:06:53.647Z,14.88
2022-10-22T06:07:53.601Z,14.81
2022-10-22T06:08:53.631Z,14.84
2022-10-22T06:09:53.537Z,14.82
2022-10-22T06:10:53.501Z,14.84
2022-10-22T06:11:53.471Z,14.82
2022-10-22T06:12:53.428Z,14.81
2022-10-22T06:13:53.403Z,14.84
2022-10-22T06:14:53.376Z,14.84
2022-10-22T06:15:53.328Z,14.84
2022-10-22T06:16:53.295Z,14.82
2022-10-22T06:17:53.264Z,14.84
2022-10-22T06:18:53.395Z,14.85
2022-10-22T06:19:53.268Z,14.81
2022-10-22T06:20:53.161Z,14.86
2022-10-22T06:21:53.127Z,14.82
2022-10-22T06:22:53.094Z,14.79
2022-10-22T06:23:53.057Z,14.79
2022-10-22T06:24:53.024Z,14.84
2022-10-22T06:25:52.987Z,14.84
2022-10-22T06:26:52.957Z,14.88
2022-10-22T06:27:52.927Z,14.82
2022-10-22T06:28:52.890Z,14.84
2022-10-22T06:29:52.858Z,14.82
2022-10-22T06:30:52.822Z,14.86
2022-10-22T06:31:52.789Z,14.86
2022-10-22T06:32:52.752Z,14.82
2022-10-22T06:33:52.722Z,14.79
2022-10-22T06:34:52.684Z,14.91
2022-10-22T06:35:52.653Z,14.79
2022-10-22T06:36:52.706Z,14.92
2022-10-22T06:37:52.583Z,14.92
2022-10-22T06:38:52.689Z,14.96
2022-10-22T06:39:52.555Z,14.88
2022-10-22T06:40:52.480Z,14.99
2022-10-22T06:41:52.449Z,14.92
2022-10-22T06:42:52.415Z,15.00
2022-10-22T06:43:52.448Z,15.02
2022-10-22T06:44:52.399Z,15.00
2022-10-22T06:45:52.312Z,15.00
2022-10-22T06:46:52.278Z,15.09
2022-10-22T06:47:52.283Z,14.96
2022-10-22T06:48:52.213Z,14.99
2022-10-22T06:49:52.179Z,15.00
2022-10-22T06:50:52.153Z,14.99
2022-10-22T06:51:52.162Z,15.03
2022-10-22T06:52:52.076Z,15.11
2022-10-22T06:53:52.046Z,15.11
2022-10-22T06:54:52.009Z,15.04
2022-10-22T06:55:51.972Z,15.03
2022-10-22T06:56:51.943Z,15.11
2022-10-22T06:57:51.914Z,15.17
2022-10-22T06:58:51.873Z,15.19
2022-10-22T06:59:51.877Z,15.10
2022-10-22T07:00:51.853Z,15.17
2022-10-22T07:01:51.833Z,15.25
2022-10-22T07:02:51.767Z,15.25
2022-10-22T07:03:51.707Z,15.27
2022-10-22T07:04:51.667Z,15.28
2022-10-22T07:05:51.639Z,15.28
2022-10-22T07:06:51.599Z,15.33
2022-10-22T07:07:51.568Z,15.39
2022-10-22T07:08:51.613Z,15.40
2022-10-22T07:09:51.605Z,15.37
2022-10-22T07:10:51.466Z,15.37
2022-10-22T07:11:51.433Z,15.40
2022-10-22T07:12:51.404Z,15.42
2022-10-22T07:13:51.365Z,15.54
2022-10-22T07:14:51.336Z,15.58
2022-10-22T07:15:51.303Z,15.52
2022-10-22T07:16:51.263Z,15.62
2022-10-22T07:17:51.233Z,15.61
2022-10-22T07:18:51.205Z,15.64
2022-10-22T07:19:52.015Z,15.62
2022-10-22T07:20:51.131Z,15.59
2022-10-22T07:21:51.101Z,15.70
2022-10-22T07:22:51.063Z,15.73
2022-10-22T07:23:51.032Z,15.70
2022-10-22T07:24:51.008Z,15.75
2022-10-22T07:25:51.030Z,15.73
2022-10-22T07:26:50.933Z,15.73
2022-10-22T07:27:50.902Z,15.79
2022-10-22T07:28:50.865Z,15.82
2022-10-22T07:29:50.832Z,15.79
2022-10-22T07:30:50.801Z,15.84
2022-10-22T07:31:50.765Z,15.84
2022-10-22T07:32:50.731Z,15.83
2022-10-22T07:33:50.698Z,15.82
2022-10-22T07:34:50.662Z,15.79
2022-10-22T07:35:50.630Z,15.92
2022-10-22T07:36:50.626Z,15.91
2022-10-22T07:37:50.564Z,15.92
2022-10-22T07:38:50.634Z,15.90
2022-10-22T07:39:50.498Z,15.92
2022-10-22T07:40:50.462Z,15.90
2022-10-22T07:41:50.432Z,15.94
2022-10-22T07:42:50.405Z,16.02
2022-10-22T07:43:50.394Z,15.88
2022-10-22T07:44:50.331Z,15.86
2022-10-22T07:45:50.300Z,15.98
2022-10-22T07:46:50.263Z,15.88
2022-10-22T07:47:50.231Z,15.98
2022-10-22T07:48:50.202Z,15.98
2022-10-22T07:49:50.159Z,16.08
2022-10-22T07:50:50.133Z,16.01
2022-10-22T07:51:50.100Z,16.02
2022-10-22T07:52:50.063Z,16.13
2022-10-22T07:53:50.079Z,16.15
2022-10-22T07:54:50.004Z,16.17
2022-10-22T07:55:49.962Z,16.13
2022-10-22T07:56:49.960Z,16.20
2022-10-22T07:57:49.951Z,16.15
2022-10-22T07:58:49.897Z,16.24
2022-10-22T07:59:49.911Z,16.31
2022-10-22T08:00:49.813Z,16.31
2022-10-22T08:01:49.766Z,16.29
2022-10-22T08:02:49.731Z,16.28
2022-10-22T08:03:49.704Z,16.41
2022-10-22T08:04:49.673Z,16.42
2022-10-22T08:05:49.640Z,16.42
2022-10-22T08:06:49.622Z,16.53
2022-10-22T08:07:49.607Z,16.47
2022-10-22T08:08:49.615Z,16.51
2022-10-22T08:09:49.511Z,16.53
2022-10-22T08:10:49.471Z,16.49
2022-10-22T08:11:49.444Z,16.54
2022-10-22T08:12:49.400Z,16.54
2022-10-22T08:13:49.368Z,16.56
2022-10-22T08:14:49.491Z,16.54
2022-10-22T08:15:51.408Z,16.66
2022-10-22T08:16:49.266Z,16.74
2022-10-22T08:17:49.236Z,16.69
2022-10-22T08:18:49.207Z,16.78
2022-10-22T08:19:49.169Z,16.76
2022-10-22T08:20:49.135Z,16.83
2022-10-22T08:21:49.105Z,16.90
2022-10-22T08:22:49.070Z,16.89
2022-10-22T08:23:49.050Z,16.89
2022-10-22T08:24:49.136Z,16.91
2022-10-22T08:25:48.992Z,17.02
2022-10-22T08:26:48.943Z,17.04
2022-10-22T08:27:48.910Z,17.05
2022-10-22T08:28:48.879Z,17.02
2022-10-22T08:29:48.848Z,17.01
2022-10-22T08:30:48.841Z,17.09
2022-10-22T08:31:48.785Z,17.01
2022-10-22T08:32:51.589Z,16.99
2022-10-22T08:33:48.714Z,17.04
2022-10-22T08:34:48.684Z,17.04
2022-10-22T08:35:48.644Z,17.15
2022-10-22T08:36:48.616Z,17.20
2022-10-22T08:37:48.618Z,17.22
2022-10-22T08:38:48.551Z,17.20
2022-10-22T08:39:48.517Z,17.24
2022-10-22T08:41:48.451Z,17.30
2022-10-22T08:42:48.421Z,17.38
2022-10-22T08:43:48.386Z,17.36
2022-10-22T08:44:48.352Z,17.34
2022-10-22T08:45:48.327Z,17.29
2022-10-22T08:46:48.343Z,17.38
2022-10-22T08:47:48.260Z,17.42
2022-10-22T08:48:48.222Z,17.49
2022-10-22T08:49:48.187Z,17.45
2022-10-22T08:50:48.157Z,17.51
2022-10-22T08:51:48.127Z,17.54
2022-10-22T08:52:48.087Z,17.46
2022-10-22T08:53:48.063Z,17.51
2022-10-22T08:54:48.025Z,17.51
2022-10-22T08:55:47.996Z,17.46
2022-10-22T08:56:47.991Z,17.51
2022-10-22T08:57:51.370Z,17.59
2022-10-22T08:58:47.901Z,17.63
2022-10-22T08:59:47.863Z,17.63
2022-10-22T09:00:47.832Z,17.59
2022-10-22T09:01:47.800Z,17.67
2022-10-22T09:02:47.767Z,17.64
2022-10-22T09:03:47.738Z,17.68
2022-10-22T09:04:47.702Z,17.76
2022-10-22T09:05:47.716Z,17.72
2022-10-22T09:06:50.741Z,17.76
2022-10-22T09:07:47.637Z,17.71
2022-10-22T09:08:47.648Z,17.76
2022-10-22T09:09:47.549Z,17.76
2022-10-22T09:10:47.510Z,17.70
2022-10-22T09:11:47.475Z,17.76
2022-10-22T09:12:47.449Z,17.71
2022-10-22T09:13:47.414Z,17.64
2022-10-22T09:14:47.379Z,17.71
2022-10-22T09:15:47.473Z,17.63
2022-10-22T09:16:47.318Z,17.64
2022-10-22T09:17:47.284Z,17.72
2022-10-22T09:18:47.253Z,17.76
2022-10-22T09:19:47.222Z,17.76
2022-10-22T09:20:47.286Z,17.76
2022-10-22T09:21:47.152Z,17.74
2022-10-22T09:22:47.123Z,17.82
2022-10-22T09:23:47.093Z,17.79
2022-10-22T09:24:47.064Z,17.80
2022-10-22T09:25:47.023Z,17.76
2022-10-22T09:26:47.000Z,17.78
2022-10-22T09:27:46.968Z,17.76
2022-10-22T09:28:46.927Z,17.71
2022-10-22T09:29:46.897Z,17.80
2022-10-22T09:30:46.917Z,17.79
2022-10-22T09:31:46.831Z,17.86
2022-10-22T09:32:46.801Z,17.86
2022-10-22T09:33:46.763Z,17.82
2022-10-22T09:34:46.769Z,17.85
2022-10-22T09:35:46.704Z,17.83
2022-10-22T09:36:46.671Z,17.74
2022-10-22T09:37:46.643Z,17.82
2022-10-22T09:38:46.606Z,17.82
2022-10-22T09:39:46.572Z,17.89
2022-10-22T09:40:46.545Z,17.87
2022-10-22T09:41:46.509Z,17.90
2022-10-22T09:42:46.483Z,18.00
2022-10-22T09:43:46.450Z,17.92
2022-10-22T09:44:48.456Z,17.97
2022-10-22T09:45:46.379Z,17.95
2022-10-22T09:46:46.350Z,17.95
2022-10-22T09:48:02.466Z,17.98
2022-10-22T09:48:46.286Z,18.00
2022-10-22T09:49:46.254Z,17.97
2022-10-22T09:50:46.219Z,18.01
2022-10-22T09:51:46.198Z,18.01
2022-10-22T09:52:46.155Z,18.01
2022-10-22T09:53:46.124Z,17.92
2022-10-22T09:54:46.106Z,17.95
2022-10-22T09:55:46.126Z,17.89
2022-10-22T09:56:46.021Z,17.92
2022-10-22T09:57:46.330Z,17.97
2022-10-22T09:58:45.987Z,17.92
2022-10-22T09:59:45.927Z,17.90
2022-10-22T10:00:45.899Z,17.94
2022-10-22T10:01:45.875Z,17.95
2022-10-22T10:02:45.859Z,18.01
2022-10-22T10:03:45.814Z,17.90
2022-10-22T10:04:45.782Z,17.92
2022-10-22T10:05:45.737Z,17.97
2022-10-22T10:06:45.783Z,17.97
2022-10-22T10:07:45.675Z,18.03
2022-10-22T10:08:45.765Z,18.08
2022-10-22T10:09:45.610Z,17.89
2022-10-22T10:10:45.576Z,17.86
2022-10-22T10:11:45.543Z,17.98
2022-10-22T10:13:45.479Z,17.92
2022-10-22T10:14:45.446Z,18.00
2022-10-22T10:15:45.414Z,18.03
2022-10-22T10:16:45.382Z,17.95
2022-10-22T10:17:45.614Z,17.97
2022-10-22T10:18:45.321Z,17.87
2022-10-22T10:19:45.299Z,17.98
2022-10-22T10:20:45.260Z,17.90
2022-10-22T10:21:45.224Z,17.82
2022-10-22T10:22:45.345Z,17.78
2022-10-22T10:23:45.162Z,17.80
2022-10-22T10:24:45.194Z,17.78
2022-10-22T10:25:45.110Z,17.80
2022-10-22T10:26:45.070Z,17.83
2022-10-22T10:27:45.030Z,17.79
2022-10-22T10:28:44.999Z,17.74
2022-10-22T10:29:44.965Z,17.79
2022-10-22T10:30:44.940Z,17.70
2022-10-22T10:31:44.915Z,17.72
2022-10-22T10:32:44.869Z,17.82
2022-10-22T10:33:44.846Z,17.78
2022-10-22T10:34:44.812Z,17.87
2022-10-22T10:35:44.779Z,17.86
2022-10-22T10:36:44.748Z,17.98
2022-10-22T10:37:44.772Z,17.98
2022-10-22T10:38:44.676Z,17.87
2022-10-22T10:39:44.656Z,17.82
2022-10-22T10:40:44.618Z,17.80
2022-10-22T10:41:44.583Z,17.80
2022-10-22T10:42:44.598Z,17.76
2022-10-22T10:43:44.519Z,17.83
2022-10-22T10:44:44.489Z,17.86
2022-10-22T10:45:44.451Z,17.83
2022-10-22T10:46:44.418Z,17.83
2022-10-22T10:47:44.496Z,17.82
2022-10-22T10:48:44.374Z,17.80
2022-10-22T10:49:44.414Z,17.90
2022-10-22T10:50:44.300Z,17.89
2022-10-22T10:51:44.263Z,17.82
2022-10-22T10:52:44.229Z,17.86
2022-10-22T10:53:44.254Z,17.97
2022-10-22T10:54:44.232Z,18.10
2022-10-22T10:55:44.175Z,18.11
2022-10-22T10:56:44.125Z,18.10
2022-10-22T10:57:44.205Z,18.05
2022-10-22T10:58:44.031Z,18.10
2022-10-22T10:59:44.007Z,18.08
2022-10-22T11:00:43.967Z,18.05
2022-10-22T11:01:44.068Z,18.13
2022-10-22T11:02:43.954Z,18.11
2022-10-22T11:03:43.874Z,18.08
2022-10-22T11:04:43.852Z,18.11
2022-10-22T11:05:43.816Z,17.92
2022-10-22T11:06:43.773Z,17.94
2022-10-22T11:07:43.749Z,18.03
2022-10-22T11:08:43.777Z,18.04
2022-10-22T11:09:43.685Z,17.97
2022-10-22T11:10:43.649Z,17.95
2022-10-22T11:11:43.618Z,18.10
2022-10-22T11:12:43.841Z,18.03
2022-10-22T11:13:43.551Z,17.94
2022-10-22T11:14:43.529Z,18.03
2022-10-22T11:15:43.494Z,18.01
2022-10-22T11:16:43.456Z,17.95
2022-10-22T11:17:43.424Z,18.03
2022-10-22T11:18:43.391Z,18.03
2022-10-22T11:19:51.616Z,18.03
2022-10-22T11:20:43.337Z,17.98
2022-10-22T11:21:43.298Z,17.98
2022-10-22T11:23:00.418Z,17.94
2022-10-22T11:23:43.288Z,18.00
2022-10-22T11:24:43.280Z,18.00
2022-10-22T11:25:43.234Z,17.97
2022-10-22T11:26:43.136Z,18.00
2022-10-22T11:27:43.367Z,17.92
2022-10-22T11:28:43.167Z,18.03
2022-10-22T11:29:43.044Z,18.03
2022-10-22T11:30:43.015Z,18.15
2022-10-22T11:31:42.991Z,18.01
2022-10-22T11:32:43.157Z,17.95
2022-10-22T11:33:42.908Z,18.16
2022-10-22T11:34:42.899Z,18.08
2022-10-22T11:35:42.900Z,18.10
2022-10-22T11:36:42.879Z,18.08
2022-10-22T11:37:43.245Z,18.11
2022-10-22T11:38:42.749Z,18.05
2022-10-22T11:39:42.722Z,18.13
2022-10-22T11:40:42.687Z,18.10
2022-10-22T11:41:42.655Z,18.04
2022-10-22T11:42:42.635Z,18.11
2022-10-22T11:43:42.591Z,18.15
2022-10-22T11:44:42.584Z,18.13
2022-10-22T11:45:42.522Z,18.13
2022-10-22T11:46:42.492Z,18.08
2022-10-22T11:47:42.795Z,18.13
2022-10-22T11:48:42.435Z,18.08
2022-10-22T11:49:42.418Z,18.19
2022-10-22T11:50:42.362Z,18.16
2022-10-22T11:51:42.338Z,18.18
2022-10-22T11:52:42.301Z,18.29
2022-10-22T11:53:42.269Z,18.22
2022-10-22T11:54:42.255Z,18.18
2022-10-22T11:55:42.205Z,18.26
2022-10-22T11:56:42.189Z,18.25
2022-10-22T11:57:42.412Z,18.22
2022-10-22T11:58:42.115Z,18.33
2022-10-22T11:59:42.078Z,18.29
2022-10-22T12:00:42.043Z,18.33
2022-10-22T12:01:42.012Z,18.40
2022-10-22T12:02:42.388Z,18.52
2022-10-22T12:03:41.952Z,18.65
2022-10-22T12:04:42.040Z,18.68
2022-10-22T12:05:41.891Z,18.65
2022-10-22T12:06:41.855Z,18.77
2022-10-22T12:07:41.823Z,18.80
2022-10-22T12:08:41.842Z,18.77
2022-10-22T12:09:41.794Z,18.80
2022-10-22T12:10:41.736Z,18.77
2022-10-22T12:11:41.697Z,18.74
2022-10-22T12:12:42.047Z,18.75
2022-10-22T12:13:41.635Z,18.58
2022-10-22T12:14:41.602Z,18.81
2022-10-22T12:15:41.568Z,18.81
2022-10-22T12:16:55.613Z,18.90
2022-10-22T12:17:41.509Z,18.99
2022-10-22T12:18:41.491Z,19.16
2022-10-22T12:19:41.442Z,19.30
2022-10-22T12:20:41.417Z,19.29
2022-10-22T12:21:41.387Z,19.37
2022-10-22T12:22:41.648Z,19.54
2022-10-22T12:23:41.316Z,19.58
2022-10-22T12:24:41.283Z,19.77
2022-10-22T12:25:41.255Z,19.92
2022-10-22T12:26:41.230Z,20.07
2022-10-22T12:27:41.570Z,20.07
2022-10-22T12:28:41.166Z,19.99
2022-10-22T12:29:41.130Z,20.10
2022-10-22T12:30:41.107Z,20.10
2022-10-22T12:31:41.068Z,20.00
2022-10-22T12:32:41.041Z,20.03
2022-10-22T12:33:41.007Z,20.10
2022-10-22T12:34:41.060Z,19.88
2022-10-22T12:35:40.943Z,19.91
2022-10-22T12:36:40.917Z,20.02
2022-10-22T12:37:41.224Z,20.07
2022-10-22T12:38:40.913Z,20.22
2022-10-22T12:39:40.839Z,20.24
2022-10-22T12:40:44.453Z,20.19
2022-10-22T12:41:40.762Z,20.04
2022-10-22T12:42:40.732Z,20.00
2022-10-22T12:43:40.699Z,20.06
2022-10-22T12:44:40.670Z,20.10
2022-10-22T12:45:40.644Z,20.18
2022-10-22T12:46:40.629Z,20.28
2022-10-22T12:47:40.794Z,20.37
2022-10-22T12:48:40.549Z,20.40
2022-10-22T12:49:40.518Z,20.37
2022-10-22T12:50:40.485Z,20.50
2022-10-22T12:51:40.496Z,20.43
2022-10-22T12:52:40.654Z,20.44
2022-10-22T12:53:40.399Z,20.56
2022-10-22T12:54:40.415Z,20.80
2022-10-22T12:55:40.333Z,21.06
2022-10-22T12:56:40.301Z,21.27
2022-10-22T12:57:40.274Z,21.30